Time;durP1;ratioP1;P1;durP2;ratioP2;P2;SDS_P1;SDS_P2;PMS_P1;PMS_P2;Temp;Humidity;BMP_temperature;BMP_pressure;BME280_temperature;BME280_humidity;BME280_pressure;Samples;Min_cycle;Max_cycle;Signal;HPM_P1;HPM_P2
2021/08/20 00:00:06;;;;;;;8.40;5.32;;;;;;;;;;4977269;28;20122;-73
2021/08/20 00:02:32;;;;;;;8.27;4.80;;;;;;;;;;4987323;28;20026;-73
2021/08/20 00:04:58;;;;;;;7.28;4.50;;;;;;;;;;4985630;28;20053;-73
2021/08/20 00:07:24;;;;;;;6.05;4.35;;;;;;;;;;4988908;28;20034;-73
2021/08/20 00:09:51;;;;;;;6.95;4.15;;;;;;;;;;4984488;28;20061;-73
2021/08/20 00:12:17;;;;;;;7.05;4.50;;;;;;;;;;4983586;28;20039;-73
2021/08/20 00:14:43;;;;;;;5.15;3.88;;;;;;;;;;4988884;28;20049;-74
2021/08/20 00:17:09;;;;;;;8.25;4.85;;;;;;;;;;4984628;28;20061;-72
2021/08/20 00:19:36;;;;;;;6.10;3.85;;;;;;;;;;4978480;28;20066;-73
2021/08/20 00:22:04;;;;;;;7.50;4.60;;;;;;;;;;4978324;28;20034;-73
2021/08/20 00:24:30;;;;;;;9.32;5.47;;;;;;;;;;4985910;28;20041;-73
2021/08/20 00:26:56;;;;;;;7.85;4.22;;;;;;;;;;4982581;28;20038;-73
2021/08/20 00:29:22;;;;;;;7.15;4.43;;;;;;;;;;4990171;28;20034;-73
2021/08/20 00:31:48;;;;;;;6.38;3.90;;;;;;;;;;4985649;28;20027;-73
2021/08/20 00:34:14;;;;;;;7.43;4.00;;;;;;;;;;4990678;28;20026;-72
2021/08/20 00:36:40;;;;;;;5.68;3.67;;;;;;;;;;4985453;28;20030;-73
2021/08/20 00:39:06;;;;;;;4.93;3.38;;;;;;;;;;4986532;28;20031;-73
2021/08/20 00:41:32;;;;;;;6.85;3.00;;;;;;;;;;4980053;28;20052;-73
2021/08/20 00:43:59;;;;;;;6.60;3.30;;;;;;;;;;4982678;28;20037;-73
2021/08/20 00:46:25;;;;;;;5.30;3.38;;;;;;;;;;4980999;28;20062;-73
2021/08/20 00:48:51;;;;;;;5.97;3.28;;;;;;;;;;4982628;28;20034;-73
2021/08/20 00:51:21;;;;;;;5.22;3.58;;;;;;;;;;4986390;28;20026;-73
2021/08/20 00:53:48;;;;;;;4.38;3.35;;;;;;;;;;4979311;28;20041;-74
2021/08/20 00:56:14;;;;;;;5.82;3.08;;;;;;;;;;4987167;28;20110;-74
2021/08/20 00:58:40;;;;;;;6.40;3.50;;;;;;;;;;4984639;28;20038;-73
2021/08/20 01:01:08;;;;;;;4.75;3.33;;;;;;;;;;4988479;28;20109;-73
2021/08/20 01:03:34;;;;;;;5.68;2.95;;;;;;;;;;4982652;28;20038;-73
2021/08/20 01:06:04;;;;;;;5.55;3.30;;;;;;;;;;4984112;28;20077;-73
2021/08/20 01:08:30;;;;;;;4.28;3.10;;;;;;;;;;4983004;28;20037;-73
2021/08/20 01:10:57;;;;;;;4.82;2.95;;;;;;;;;;4974256;28;20145;-73
2021/08/20 01:13:23;;;;;;;5.22;3.10;;;;;;;;;;4972231;28;20046;-73
2021/08/20 01:15:50;;;;;;;3.55;2.72;;;;;;;;;;4978015;28;20271;-73
2021/08/20 01:18:36;;;;;;;6.05;3.42;;;;;;;;;;4978766;28;20397;-73
2021/08/20 01:21:06;;;;;;;5.47;3.00;;;;;;;;;;4982932;28;20074;-73
2021/08/20 01:23:32;;;;;;;5.50;2.90;;;;;;;;;;4989037;28;20495;-73
2021/08/20 01:25:59;;;;;;;3.75;2.28;;;;;;;;;;4986625;28;20038;-72
2021/08/20 01:28:26;;;;;;;4.85;2.92;;;;;;;;;;4977487;28;20237;-73
2021/08/20 01:30:52;;;;;;;4.35;3.05;;;;;;;;;;4990433;28;20014;-73
2021/08/20 01:33:18;;;;;;;3.75;2.38;;;;;;;;;;4979788;28;20034;-73
2021/08/20 01:35:44;;;;;;;4.22;2.63;;;;;;;;;;4987466;28;20421;-73
2021/08/20 01:38:10;;;;;;;4.68;2.70;;;;;;;;;;4982342;28;20073;-73
2021/08/20 01:40:36;;;;;;;6.47;2.88;;;;;;;;;;4986920;28;20036;-73
2021/08/20 01:43:02;;;;;;;3.92;2.50;;;;;;;;;;4979598;28;20031;-73
2021/08/20 01:45:28;;;;;;;6.68;2.75;;;;;;;;;;4979235;28;20370;-73
2021/08/20 01:47:54;;;;;;;5.55;2.80;;;;;;;;;;4985018;28;20404;-73
2021/08/20 01:50:20;;;;;;;4.20;2.65;;;;;;;;;;4985189;28;20545;-73
2021/08/20 01:52:46;;;;;;;4.55;2.50;;;;;;;;;;4970346;28;20073;-73
2021/08/20 01:55:12;;;;;;;3.53;2.45;;;;;;;;;;4976179;28;20026;-74
2021/08/20 01:57:38;;;;;;;5.55;2.60;;;;;;;;;;4987144;28;20029;-73
2021/08/20 02:00:05;;;;;;;5.75;2.78;;;;;;;;;;4987194;28;20037;-73
2021/08/20 02:02:31;;;;;;;4.32;2.92;;;;;;;;;;4983014;28;20096;-73
2021/08/20 02:04:57;;;;;;;3.50;2.78;;;;;;;;;;4984640;28;20481;-73
2021/08/20 02:07:23;;;;;;;5.88;2.15;;;;;;;;;;4982071;28;20525;-73
2021/08/20 02:09:49;;;;;;;3.58;2.80;;;;;;;;;;4982806;28;20057;-73
2021/08/20 02:12:15;;;;;;;5.00;3.53;;;;;;;;;;4985538;28;20095;-73
2021/08/20 02:14:41;;;;;;;5.03;3.38;;;;;;;;;;4984647;28;20022;-73
2021/08/20 02:17:07;;;;;;;4.50;2.70;;;;;;;;;;4983251;28;20026;-73
2021/08/20 02:19:33;;;;;;;3.50;2.58;;;;;;;;;;4986433;28;20084;-73
2021/08/20 02:21:59;;;;;;;4.30;2.88;;;;;;;;;;4982689;28;20509;-73
2021/08/20 02:24:25;;;;;;;5.22;3.08;;;;;;;;;;4976325;28;20031;-73
2021/08/20 02:26:51;;;;;;;4.47;2.80;;;;;;;;;;4971177;28;20058;-73
2021/08/20 02:29:20;;;;;;;4.50;2.65;;;;;;;;;;4975189;28;20065;-73
2021/08/20 02:31:46;;;;;;;4.47;2.85;;;;;;;;;;4978215;28;20019;-73
2021/08/20 02:34:12;;;;;;;4.30;2.80;;;;;;;;;;4983841;28;20547;-73
2021/08/20 02:36:38;;;;;;;4.57;2.55;;;;;;;;;;4979491;28;20026;-73
2021/08/20 02:39:04;;;;;;;4.40;2.67;;;;;;;;;;4981706;28;20034;-73
2021/08/20 02:41:29;;;;;;;4.90;2.80;;;;;;;;;;4979983;28;20031;-73
2021/08/20 02:43:56;;;;;;;3.95;2.95;;;;;;;;;;4983038;28;20038;-73
2021/08/20 02:46:22;;;;;;;5.47;2.92;;;;;;;;;;4982671;28;20080;-73
2021/08/20 02:48:48;;;;;;;6.05;3.10;;;;;;;;;;4985718;28;20545;-73
2021/08/20 02:51:14;;;;;;;3.92;2.88;;;;;;;;;;4983721;28;20023;-73
2021/08/20 02:53:41;;;;;;;5.03;2.88;;;;;;;;;;4987223;28;20054;-74
2021/08/20 02:56:07;;;;;;;5.78;3.05;;;;;;;;;;4987052;28;20053;-73
2021/08/20 02:58:33;;;;;;;5.47;3.20;;;;;;;;;;4985439;28;20035;-73
2021/08/20 03:00:58;;;;;;;5.93;3.10;;;;;;;;;;4980984;28;20041;-73
2021/08/20 03:03:24;;;;;;;6.78;3.75;;;;;;;;;;4980729;28;20496;-73
2021/08/20 03:05:50;;;;;;;5.55;3.33;;;;;;;;;;4984317;28;20023;-73
2021/08/20 03:08:16;;;;;;;4.97;3.22;;;;;;;;;;4986361;28;20401;-73
2021/08/20 03:10:43;;;;;;;5.82;3.28;;;;;;;;;;4974090;28;20042;-73
2021/08/20 03:13:09;;;;;;;6.10;3.30;;;;;;;;;;4985165;28;20560;-73
2021/08/20 03:15:35;;;;;;;4.78;3.28;;;;;;;;;;4984821;28;20480;-73
2021/08/20 03:18:01;;;;;;;6.25;3.60;;;;;;;;;;4977748;28;20030;-72
2021/08/20 03:20:27;;;;;;;6.32;3.53;;;;;;;;;;4974548;28;20029;-73
2021/08/20 03:22:53;;;;;;;9.77;4.20;;;;;;;;;;4985826;28;20030;-73
2021/08/20 03:25:19;;;;;;;4.60;2.90;;;;;;;;;;4978154;28;20120;-73
2021/08/20 03:27:45;;;;;;;6.35;3.78;;;;;;;;;;4971402;28;20474;-73
2021/08/20 03:30:11;;;;;;;7.35;3.20;;;;;;;;;;4985867;28;20027;-73
2021/08/20 03:32:37;;;;;;;4.07;3.15;;;;;;;;;;4987498;28;20129;-73
2021/08/20 03:35:03;;;;;;;6.75;3.58;;;;;;;;;;4984555;28;20382;-73
2021/08/20 03:37:32;;;;;;;6.50;3.40;;;;;;;;;;4983129;28;20082;-73
2021/08/20 03:39:58;;;;;;;6.25;3.50;;;;;;;;;;4986622;28;20037;-73
2021/08/20 03:42:24;;;;;;;6.00;3.08;;;;;;;;;;4987657;28;20026;-73
2021/08/20 03:44:49;;;;;;;5.10;3.38;;;;;;;;;;4983212;28;20023;-73
2021/08/20 03:47:15;;;;;;;4.43;2.88;;;;;;;;;;4988118;28;20061;-73
2021/08/20 03:49:41;;;;;;;6.45;3.50;;;;;;;;;;4986646;28;20197;-73
2021/08/20 03:52:07;;;;;;;7.45;3.53;;;;;;;;;;4984865;28;20381;-73
2021/08/20 03:54:33;;;;;;;5.63;3.92;;;;;;;;;;4988968;28;20113;-73
2021/08/20 03:56:59;;;;;;;5.00;3.42;;;;;;;;;;4986395;28;20030;-74
2021/08/20 03:59:25;;;;;;;6.28;3.97;;;;;;;;;;4979331;28;20042;-73
2021/08/20 04:01:51;;;;;;;7.13;3.53;;;;;;;;;;4989587;28;20101;-73
2021/08/20 04:04:17;;;;;;;7.28;3.53;;;;;;;;;;4989152;28;20042;-73
2021/08/20 04:06:43;;;;;;;7.22;3.60;;;;;;;;;;4988437;28;20121;-73
2021/08/20 04:09:09;;;;;;;6.38;3.25;;;;;;;;;;4986732;28;20026;-73
2021/08/20 04:11:35;;;;;;;7.38;3.90;;;;;;;;;;4986731;28;20259;-73
2021/08/20 04:14:08;;;;;;;5.35;2.88;;;;;;;;;;4990475;28;20054;-72
2021/08/20 04:16:36;;;;;;;6.05;3.13;;;;;;;;;;4980231;28;20117;-72
2021/08/20 04:19:02;;;;;;;6.75;3.55;;;;;;;;;;4986854;28;20401;-73
2021/08/20 04:21:28;;;;;;;6.47;3.80;;;;;;;;;;4982549;28;20042;-73
2021/08/20 04:24:14;;;;;;;4.53;2.85;;;;;;;;;;4980931;28;20535;-73
2021/08/20 04:26:40;;;;;;;5.93;3.10;;;;;;;;;;4977975;28;20033;-73
2021/08/20 04:29:06;;;;;;;6.10;3.65;;;;;;;;;;4982039;28;20409;-72
2021/08/20 04:31:32;;;;;;;5.70;3.28;;;;;;;;;;4995286;28;20043;-74
2021/08/20 04:33:58;;;;;;;7.60;4.32;;;;;;;;;;4985067;28;20469;-73
2021/08/20 04:36:24;;;;;;;6.43;3.63;;;;;;;;;;4986292;28;20038;-72
2021/08/20 04:38:50;;;;;;;4.97;3.22;;;;;;;;;;4985367;28;20048;-73
2021/08/20 04:41:16;;;;;;;5.53;3.45;;;;;;;;;;4983896;28;20036;-73
2021/08/20 04:43:42;;;;;;;6.55;4.00;;;;;;;;;;4986917;28;20092;-73
2021/08/20 04:46:08;;;;;;;7.25;4.30;;;;;;;;;;4981727;28;20080;-73
2021/08/20 04:48:34;;;;;;;7.82;4.18;;;;;;;;;;4982934;28;20440;-73
2021/08/20 04:51:00;;;;;;;5.65;3.78;;;;;;;;;;4979559;28;20033;-73
2021/08/20 04:53:30;;;;;;;6.63;3.92;;;;;;;;;;4990020;28;20030;-73
2021/08/20 04:55:57;;;;;;;7.00;3.70;;;;;;;;;;4988000;28;20015;-73
2021/08/20 04:58:23;;;;;;;6.35;3.95;;;;;;;;;;4987057;28;20038;-73
2021/08/20 05:00:49;;;;;;;6.75;3.45;;;;;;;;;;4987769;28;20025;-73
2021/08/20 05:03:15;;;;;;;7.60;4.32;;;;;;;;;;4984635;28;20133;-72
2021/08/20 05:05:41;;;;;;;6.18;3.60;;;;;;;;;;4974407;28;20033;-72
2021/08/20 05:08:08;;;;;;;5.22;3.70;;;;;;;;;;4985815;28;20125;-74
2021/08/20 05:10:34;;;;;;;6.60;3.63;;;;;;;;;;4980562;28;20038;-75
2021/08/20 05:13:00;;;;;;;7.18;3.63;;;;;;;;;;4988418;28;20022;-74
2021/08/20 05:15:26;;;;;;;6.80;3.97;;;;;;;;;;4980405;28;20057;-74
2021/08/20 05:17:53;;;;;;;6.05;3.75;;;;;;;;;;4978122;28;20121;-73
2021/08/20 05:20:19;;;;;;;8.35;4.65;;;;;;;;;;4989420;28;20030;-74
2021/08/20 05:22:45;;;;;;;6.65;3.78;;;;;;;;;;4986655;28;20040;-75
2021/08/20 05:25:11;;;;;;;7.88;4.30;;;;;;;;;;4986714;28;20473;-73
2021/08/20 05:27:37;;;;;;;6.55;3.78;;;;;;;;;;4985015;28;20034;-73
2021/08/20 05:30:03;;;;;;;7.60;4.03;;;;;;;;;;4980575;28;20488;-73
2021/08/20 05:32:29;;;;;;;5.28;3.65;;;;;;;;;;4986628;28;20031;-79
2021/08/20 05:34:55;;;;;;;6.70;3.55;;;;;;;;;;4985786;28;20030;-73
2021/08/20 05:37:21;;;;;;;8.48;4.30;;;;;;;;;;4987504;28;20442;-73
2021/08/20 05:39:47;;;;;;;5.68;4.05;;;;;;;;;;4981492;28;20031;-73
2021/08/20 05:42:13;;;;;;;7.00;4.20;;;;;;;;;;4989387;28;20116;-73
2021/08/20 05:44:39;;;;;;;7.65;4.20;;;;;;;;;;4970041;28;20119;-72
2021/08/20 05:47:05;;;;;;;7.55;4.30;;;;;;;;;;4982248;28;20038;-73
2021/08/20 05:49:31;;;;;;;5.82;3.88;;;;;;;;;;4986375;28;20041;-74
2021/08/20 05:51:57;;;;;;;7.97;4.38;;;;;;;;;;4986139;28;20030;-73
2021/08/20 05:54:23;;;;;;;6.97;4.50;;;;;;;;;;4987446;28;20493;-74
2021/08/20 05:56:49;;;;;;;7.03;4.18;;;;;;;;;;4983212;28;20026;-73
2021/08/20 05:59:14;;;;;;;9.82;3.85;;;;;;;;;;4978407;28;20034;-74
2021/08/20 06:01:40;;;;;;;9.43;4.32;;;;;;;;;;4970759;28;20220;-74
2021/08/20 06:04:06;;;;;;;6.75;4.18;;;;;;;;;;4986836;28;20034;-74
2021/08/20 06:06:32;;;;;;;6.45;3.88;;;;;;;;;;4976096;28;20031;-74
2021/08/20 06:08:58;;;;;;;9.20;4.60;;;;;;;;;;4976335;28;20038;-74
2021/08/20 06:11:24;;;;;;;8.25;4.25;;;;;;;;;;4979983;28;20493;-74
2021/08/20 06:13:50;;;;;;;10.48;5.25;;;;;;;;;;4983248;28;20129;-73
2021/08/20 06:16:16;;;;;;;7.93;4.57;;;;;;;;;;4987508;28;20499;-72
2021/08/20 06:18:42;;;;;;;9.15;4.78;;;;;;;;;;4986663;28;20030;-73
2021/08/20 06:21:08;;;;;;;7.38;4.63;;;;;;;;;;4980865;28;20037;-74
2021/08/20 06:23:34;;;;;;;8.30;4.85;;;;;;;;;;4981914;28;20391;-74
2021/08/20 06:26:00;;;;;;;8.57;5.05;;;;;;;;;;4972977;28;20603;-74
2021/08/20 06:28:26;;;;;;;9.20;5.07;;;;;;;;;;4974562;28;20057;-74
2021/08/20 06:30:52;;;;;;;8.55;5.05;;;;;;;;;;4981218;28;20023;-74
2021/08/20 06:33:18;;;;;;;10.35;4.70;;;;;;;;;;4979525;28;20109;-74
2021/08/20 06:35:44;;;;;;;9.23;5.20;;;;;;;;;;4970164;28;20422;-74
2021/08/20 06:38:10;;;;;;;11.02;5.30;;;;;;;;;;4969364;28;20397;-74
2021/08/20 06:40:36;;;;;;;9.07;5.43;;;;;;;;;;4980188;28;20081;-74
2021/08/20 06:43:02;;;;;;;9.13;5.38;;;;;;;;;;4973865;28;20027;-74
2021/08/20 06:45:28;;;;;;;8.50;4.97;;;;;;;;;;4977202;28;20034;-74
2021/08/20 06:47:55;;;;;;;10.02;5.53;;;;;;;;;;4969421;28;20275;-74
2021/08/20 06:50:21;;;;;;;9.50;6.05;;;;;;;;;;4968958;28;20035;-74
2021/08/20 06:52:47;;;;;;;13.43;6.10;;;;;;;;;;4976192;28;20072;-74
2021/08/20 06:55:13;;;;;;;11.98;6.75;;;;;;;;;;4985178;28;20029;-74
2021/08/20 06:57:39;;;;;;;10.82;7.05;;;;;;;;;;4981195;28;20023;-74
2021/08/20 07:00:05;;;;;;;10.65;6.95;;;;;;;;;;4969186;28;20090;-74
2021/08/20 07:02:31;;;;;;;13.63;7.88;;;;;;;;;;4975443;28;20117;-74
2021/08/20 07:04:57;;;;;;;11.75;7.00;;;;;;;;;;4978648;28;20134;-74
2021/08/20 07:07:23;;;;;;;12.45;7.70;;;;;;;;;;4981146;28;20054;-74
2021/08/20 07:09:48;;;;;;;12.88;7.22;;;;;;;;;;4978665;28;20425;-74
2021/08/20 07:12:14;;;;;;;15.73;8.00;;;;;;;;;;4976176;28;20522;-74
2021/08/20 07:14:40;;;;;;;15.80;7.70;;;;;;;;;;4972719;28;20618;-74
2021/08/20 07:17:06;;;;;;;13.50;7.72;;;;;;;;;;4972783;28;20246;-74
2021/08/20 07:19:32;;;;;;;13.75;8.77;;;;;;;;;;4978673;28;20109;-74
2021/08/20 07:21:58;;;;;;;15.38;9.45;;;;;;;;;;4986079;28;20461;-74
2021/08/20 07:24:24;;;;;;;16.83;8.30;;;;;;;;;;4972398;28;20026;-74
2021/08/20 07:26:50;;;;;;;13.70;8.95;;;;;;;;;;4972526;28;20528;-74
2021/08/20 07:29:15;;;;;;;15.40;8.50;;;;;;;;;;4973097;28;20031;-74
2021/08/20 07:31:41;;;;;;;17.33;9.27;;;;;;;;;;4989010;28;20558;-74
2021/08/20 07:34:07;;;;;;;17.40;9.27;;;;;;;;;;4972538;28;20160;-74
2021/08/20 07:36:33;;;;;;;22.25;10.18;;;;;;;;;;4985441;28;20026;-74
2021/08/20 07:38:59;;;;;;;16.92;9.95;;;;;;;;;;4977987;28;20126;-73
2021/08/20 07:41:25;;;;;;;22.83;11.45;;;;;;;;;;4980998;28;20034;-73
2021/08/20 07:43:51;;;;;;;16.42;9.98;;;;;;;;;;4973543;28;20077;-74
2021/08/20 07:46:17;;;;;;;18.60;10.88;;;;;;;;;;4984304;28;20058;-73
2021/08/20 07:48:43;;;;;;;16.95;10.32;;;;;;;;;;4979924;28;20034;-73
2021/08/20 07:51:09;;;;;;;19.92;9.40;;;;;;;;;;4972025;28;20347;-73
2021/08/20 07:53:35;;;;;;;15.10;9.77;;;;;;;;;;4978109;28;20022;-73
2021/08/20 07:56:00;;;;;;;14.27;8.43;;;;;;;;;;4975774;28;20073;-73
2021/08/20 07:58:26;;;;;;;14.80;7.38;;;;;;;;;;4984023;28;20033;-73
2021/08/20 08:00:52;;;;;;;12.30;7.57;;;;;;;;;;4971977;28;20433;-73
2021/08/20 08:03:18;;;;;;;13.57;7.53;;;;;;;;;;4971662;28;20038;-73
2021/08/20 08:05:44;;;;;;;13.75;7.60;;;;;;;;;;4972310;28;20031;-73
2021/08/20 08:08:10;;;;;;;10.68;6.55;;;;;;;;;;4987447;28;20398;-73
2021/08/20 08:10:36;;;;;;;10.93;6.70;;;;;;;;;;4976863;28;20799;-73
2021/08/20 08:13:02;;;;;;;11.48;6.38;;;;;;;;;;4990984;28;20034;-73
2021/08/20 08:15:28;;;;;;;12.25;7.05;;;;;;;;;;4990810;28;20023;-73
2021/08/20 08:17:55;;;;;;;12.90;6.40;;;;;;;;;;4988082;28;20148;-73
2021/08/20 08:20:22;;;;;;;11.70;6.97;;;;;;;;;;4971219;28;20027;-73
2021/08/20 08:22:48;;;;;;;8.93;6.38;;;;;;;;;;4971373;28;20470;-74
2021/08/20 08:25:16;;;;;;;11.82;6.50;;;;;;;;;;4971539;28;20054;-73
2021/08/20 08:27:46;;;;;;;10.73;6.50;;;;;;;;;;4977697;28;20544;-73
2021/08/20 08:30:12;;;;;;;12.68;5.97;;;;;;;;;;4994875;28;20733;-73
2021/08/20 08:32:38;;;;;;;11.32;6.05;;;;;;;;;;4984046;28;20027;-73
2021/08/20 08:35:04;;;;;;;10.23;5.97;;;;;;;;;;4976939;28;20027;-73
2021/08/20 08:37:29;;;;;;;14.32;6.43;;;;;;;;;;4971666;28;20023;-74
2021/08/20 08:39:55;;;;;;;8.52;6.05;;;;;;;;;;4977954;28;20037;-74
2021/08/20 08:42:21;;;;;;;9.75;5.82;;;;;;;;;;4974975;28;20044;-72
2021/08/20 08:44:47;;;;;;;12.40;6.32;;;;;;;;;;4978610;28;20381;-72
2021/08/20 08:47:16;;;;;;;8.85;5.57;;;;;;;;;;4970913;28;20038;-71
2021/08/20 08:49:42;;;;;;;10.05;5.78;;;;;;;;;;4971426;28;20108;-71
2021/08/20 08:52:08;;;;;;;9.48;5.78;;;;;;;;;;4976198;28;20030;-72
2021/08/20 08:54:37;;;;;;;12.88;5.88;;;;;;;;;;4970857;28;20023;-72
2021/08/20 08:57:03;;;;;;;7.82;5.28;;;;;;;;;;4970933;28;20022;-72
2021/08/20 08:59:29;;;;;;;15.63;6.18;;;;;;;;;;4977157;28;20027;-72
2021/08/20 09:01:55;;;;;;;12.85;5.97;;;;;;;;;;4982907;28;20042;-73
2021/08/20 09:04:22;;;;;;;9.23;5.10;;;;;;;;;;4981378;28;20026;-72
2021/08/20 09:06:55;;;;;;;7.38;5.15;;;;;;;;;;4970997;28;20513;-73
2021/08/20 09:09:22;;;;;;;9.50;5.07;;;;;;;;;;4970307;28;20027;-73
2021/08/20 09:11:53;;;;;;;7.50;5.00;;;;;;;;;;4967487;28;20054;-73
2021/08/20 09:14:19;;;;;;;7.85;4.88;;;;;;;;;;4978329;28;20535;-73
2021/08/20 09:16:46;;;;;;;8.93;4.88;;;;;;;;;;4970405;28;20027;-73
2021/08/20 09:19:17;;;;;;;6.13;4.30;;;;;;;;;;4972408;28;20385;-73
2021/08/20 09:21:46;;;;;;;8.57;4.78;;;;;;;;;;4970219;28;20390;-73
2021/08/20 09:24:31;;;;;;;5.45;3.30;;;;;;;;;;4981160;28;20034;-73
2021/08/20 09:27:18;;;;;;;6.60;3.47;;;;;;;;;;4988237;28;20113;-73
2021/08/20 09:30:06;;;;;;;5.07;3.28;;;;;;;;;;4992014;28;20465;-72
2021/08/20 09:32:32;;;;;;;4.75;3.05;;;;;;;;;;4977875;28;20089;-73
2021/08/20 09:34:58;;;;;;;3.05;2.13;;;;;;;;;;4972315;28;20027;-73
2021/08/20 09:37:25;;;;;;;2.70;1.67;;;;;;;;;;4976292;28;20037;-73
2021/08/20 09:39:57;;;;;;;2.05;1.65;;;;;;;;;;4977018;28;20041;-73
2021/08/20 09:42:23;;;;;;;1.85;1.48;;;;;;;;;;4978140;28;20054;-73
2021/08/20 09:45:09;;;;;;;1.98;1.67;;;;;;;;;;4970135;28;20022;-73
2021/08/20 09:47:40;;;;;;;1.20;1.08;;;;;;;;;;4975428;28;20356;-73
2021/08/20 09:50:06;;;;;;;1.00;0.82;;;;;;;;;;4982564;28;20034;-72
2021/08/20 09:52:32;;;;;;;2.53;0.65;;;;;;;;;;4977742;28;20033;-73
2021/08/20 09:54:58;;;;;;;0.68;0.68;;;;;;;;;;4986777;28;20398;-73
2021/08/20 09:57:27;;;;;;;2.15;0.98;;;;;;;;;;4979765;28;20027;-73
2021/08/20 09:59:57;;;;;;;0.73;0.73;;;;;;;;;;4972721;28;20065;-72
2021/08/20 10:02:27;;;;;;;0.60;0.60;;;;;;;;;;4970907;28;20038;-73
2021/08/20 10:04:57;;;;;;;0.63;0.63;;;;;;;;;;4974450;28;20038;-73
2021/08/20 10:07:25;;;;;;;1.02;0.70;;;;;;;;;;4975700;28;20671;-73
2021/08/20 10:09:52;;;;;;;1.00;0.80;;;;;;;;;;4985055;28;20358;-73
2021/08/20 10:12:18;;;;;;;0.95;0.93;;;;;;;;;;4967648;28;20065;-73
2021/08/20 10:14:45;;;;;;;1.48;1.08;;;;;;;;;;4969740;28;20359;-73
2021/08/20 10:17:12;;;;;;;1.60;1.20;;;;;;;;;;4972123;28;20496;-73
2021/08/20 10:19:38;;;;;;;1.33;1.23;;;;;;;;;;4987640;28;20039;-73
2021/08/20 10:22:05;;;;;;;1.20;1.10;;;;;;;;;;4969461;28;20030;-73
2021/08/20 10:24:31;;;;;;;2.05;1.48;;;;;;;;;;4969436;28;20035;-73
2021/08/20 10:27:00;;;;;;;1.60;1.38;;;;;;;;;;4972479;28;20098;-73
2021/08/20 10:29:26;;;;;;;1.80;1.40;;;;;;;;;;4975859;28;20046;-73
2021/08/20 10:31:53;;;;;;;2.58;1.45;;;;;;;;;;4984720;28;20038;-73
2021/08/20 10:34:31;;;;;;;2.30;1.60;;;;;;;;;;4969041;28;20458;-73
2021/08/20 10:37:06;;;;;;;2.70;1.58;;;;;;;;;;4970344;28;20389;-73
2021/08/20 10:39:32;;;;;;;2.03;1.55;;;;;;;;;;4988228;28;20400;-73
2021/08/20 10:42:11;;;;;;;8.00;2.70;;;;;;;;;;4992992;28;20042;-73
2021/08/20 10:44:39;;;;;;;2.97;2.38;;;;;;;;;;4985603;28;20031;-73
2021/08/20 10:47:05;;;;;;;4.82;2.65;;;;;;;;;;4973352;28;20031;-73
2021/08/20 10:49:41;;;;;;;4.45;2.72;;;;;;;;;;4973701;28;20027;-73
2021/08/20 10:52:07;;;;;;;5.55;3.33;;;;;;;;;;4981004;28;20389;-73
2021/08/20 10:54:33;;;;;;;5.43;2.75;;;;;;;;;;4972835;28;20473;-72
2021/08/20 10:57:00;;;;;;;8.75;3.97;;;;;;;;;;4973077;28;20390;-73
2021/08/20 10:59:39;;;;;;;11.13;4.28;;;;;;;;;;4977290;28;20381;-73
2021/08/20 11:02:36;;;;;;;5.28;3.63;;;;;;;;;;4977195;28;20105;-73
2021/08/20 11:05:12;;;;;;;3.97;2.85;;;;;;;;;;4972786;28;20035;-72
2021/08/20 11:07:45;;;;;;;5.18;3.38;;;;;;;;;;4972551;28;20027;-73
2021/08/20 11:10:11;;;;;;;3.45;2.78;;;;;;;;;;4979798;28;20039;-74
2021/08/20 11:12:43;;;;;;;4.75;2.97;;;;;;;;;;4984783;28;20057;-73
2021/08/20 11:15:18;;;;;;;5.32;2.90;;;;;;;;;;4978706;28;20630;-75
2021/08/20 11:17:53;;;;;;;4.32;2.67;;;;;;;;;;4987116;28;20110;-75
2021/08/20 11:20:23;;;;;;;5.22;3.33;;;;;;;;;;4983186;28;20038;-76
2021/08/20 11:23:08;;;;;;;4.82;2.80;;;;;;;;;;4988711;28;20038;-74
2021/08/20 11:25:40;;;;;;;3.40;2.80;;;;;;;;;;4983041;28;20031;-75
2021/08/20 11:28:07;;;;;;;4.47;2.85;;;;;;;;;;4989305;28;20035;-74
2021/08/20 11:30:40;;;;;;;3.60;2.65;;;;;;;;;;4989467;28;20027;-75
2021/08/20 11:33:16;;;;;;;3.75;2.70;;;;;;;;;;4984971;28;20034;-74
2021/08/20 11:35:45;;;;;;;6.78;3.10;;;;;;;;;;4984384;28;20393;-75
2021/08/20 11:38:11;;;;;;;8.05;3.08;;;;;;;;;;4977592;28;20026;-75
2021/08/20 11:40:48;;;;;;;5.90;3.03;;;;;;;;;;4989493;28;20037;-75
2021/08/20 11:43:14;;;;;;;4.47;2.97;;;;;;;;;;4972451;28;20027;-75
2021/08/20 11:45:40;;;;;;;5.10;2.70;;;;;;;;;;4983858;28;20038;-75
2021/08/20 11:48:06;;;;;;;3.42;2.92;;;;;;;;;;4984369;28;20034;-75
2021/08/20 11:50:33;;;;;;;5.40;3.17;;;;;;;;;;4984351;28;20033;-75
2021/08/20 11:52:59;;;;;;;4.30;3.22;;;;;;;;;;4983198;28;20027;-75
2021/08/20 11:55:26;;;;;;;4.05;3.30;;;;;;;;;;4978254;28;20433;-75
2021/08/20 11:57:52;;;;;;;4.25;3.00;;;;;;;;;;4979947;28;20026;-75
2021/08/20 12:00:18;;;;;;;4.72;3.25;;;;;;;;;;4985610;28;20030;-75
2021/08/20 12:03:03;;;;;;;7.28;3.80;;;;;;;;;;4977798;28;20121;-75
2021/08/20 12:05:28;;;;;;;5.63;3.25;;;;;;;;;;4982391;28;20069;-75
2021/08/20 12:07:54;;;;;;;4.65;3.38;;;;;;;;;;4973278;28;20035;-75
2021/08/20 12:10:20;;;;;;;7.82;3.00;;;;;;;;;;4982480;28;20046;-75
2021/08/20 12:12:47;;;;;;;4.50;3.17;;;;;;;;;;4990242;28;20033;-75
2021/08/20 12:15:13;;;;;;;4.88;3.50;;;;;;;;;;4974564;28;20560;-75
2021/08/20 12:17:40;;;;;;;4.80;3.63;;;;;;;;;;4979236;28;20018;-75
2021/08/20 12:20:18;;;;;;;5.70;3.90;;;;;;;;;;4978273;28;20121;-75
2021/08/20 12:22:50;;;;;;;7.20;3.88;;;;;;;;;;4990816;28;20029;-75
2021/08/20 12:25:23;;;;;;;12.40;3.75;;;;;;;;;;4990319;28;20117;-76
2021/08/20 12:27:50;;;;;;;6.63;4.30;;;;;;;;;;4971389;28;20026;-75
2021/08/20 12:30:16;;;;;;;9.32;4.60;;;;;;;;;;4986456;28;20121;-76
2021/08/20 12:32:44;;;;;;;13.80;5.88;;;;;;;;;;4975514;28;20487;-75
2021/08/20 12:35:17;;;;;;;9.95;5.05;;;;;;;;;;4971504;28;20023;-75
2021/08/20 12:38:00;;;;;;;7.85;4.30;;;;;;;;;;4972986;28;20019;-76
2021/08/20 12:40:33;;;;;;;8.43;4.45;;;;;;;;;;4988469;28;20121;-75
2021/08/20 12:42:59;;;;;;;6.95;4.72;;;;;;;;;;4980812;28;20221;-76
2021/08/20 12:45:25;;;;;;;10.77;4.05;;;;;;;;;;4987537;28;20470;-74
2021/08/20 12:48:03;;;;;;;11.00;5.00;;;;;;;;;;4986540;28;20042;-74
2021/08/20 12:50:29;;;;;;;6.55;4.75;;;;;;;;;;4986565;28;20505;-83
2021/08/20 12:53:05;;;;;;;6.90;4.45;;;;;;;;;;4987893;28;20030;-74
2021/08/20 12:55:33;;;;;;;6.57;4.70;;;;;;;;;;4989464;28;20935;-77
2021/08/20 12:58:00;;;;;;;4.78;3.97;;;;;;;;;;4982403;28;20039;-74
2021/08/20 13:00:26;;;;;;;6.50;4.55;;;;;;;;;;4986571;28;20461;-73
2021/08/20 13:02:52;;;;;;;7.18;4.95;;;;;;;;;;4985545;28;20030;-75
2021/08/20 13:05:19;;;;;;;8.73;4.30;;;;;;;;;;4978533;28;20031;-80
2021/08/20 13:07:45;;;;;;;8.68;4.45;;;;;;;;;;4978063;28;20035;-74
2021/08/20 13:10:11;;;;;;;6.18;4.38;;;;;;;;;;4978320;28;20073;-73
2021/08/20 13:12:37;;;;;;;4.82;4.00;;;;;;;;;;4982113;28;20026;-73
2021/08/20 13:15:03;;;;;;;9.77;4.47;;;;;;;;;;4989089;28;20517;-73
2021/08/20 13:17:29;;;;;;;6.25;4.25;;;;;;;;;;4979514;28;20549;-73
2021/08/20 13:19:56;;;;;;;7.78;4.50;;;;;;;;;;4983243;28;20114;-75
2021/08/20 13:22:22;;;;;;;4.97;3.08;;;;;;;;;;4979140;28;20430;-76
2021/08/20 13:24:48;;;;;;;5.45;3.05;;;;;;;;;;4975594;28;20096;-75
2021/08/20 13:27:14;;;;;;;2.47;2.20;;;;;;;;;;4972172;28;20034;-74
2021/08/20 13:29:40;;;;;;;3.67;2.42;;;;;;;;;;4986490;28;20026;-74
2021/08/20 13:32:06;;;;;;;2.85;1.90;;;;;;;;;;4986461;28;20041;-73
2021/08/20 13:34:32;;;;;;;1.90;1.70;;;;;;;;;;4985190;28;20037;-73
2021/08/20 13:36:58;;;;;;;2.30;1.65;;;;;;;;;;4985784;28;20034;-74
2021/08/20 13:39:24;;;;;;;3.80;1.58;;;;;;;;;;4985284;28;20053;-73
2021/08/20 13:41:50;;;;;;;2.33;1.67;;;;;;;;;;4985096;28;20125;-73
2021/08/20 13:44:17;;;;;;;1.92;1.52;;;;;;;;;;4986592;28;20060;-72
2021/08/20 13:46:43;;;;;;;2.05;1.67;;;;;;;;;;4988158;28;20026;-71
2021/08/20 13:49:10;;;;;;;2.03;1.70;;;;;;;;;;4980868;28;20022;-71
2021/08/20 13:51:36;;;;;;;1.60;1.50;;;;;;;;;;4965498;28;20038;-72
2021/08/20 13:54:05;;;;;;;2.75;1.80;;;;;;;;;;4983798;28;20417;-72
2021/08/20 13:56:31;;;;;;;2.20;1.60;;;;;;;;;;4986626;28;20370;-72
2021/08/20 13:58:58;;;;;;;3.28;1.48;;;;;;;;;;4986438;28;20041;-72
2021/08/20 14:01:24;;;;;;;2.63;1.52;;;;;;;;;;4983019;28;20027;-72
2021/08/20 14:03:50;;;;;;;0.80;0.80;;;;;;;;;;4981809;28;20046;-71
2021/08/20 14:06:16;;;;;;;0.88;0.70;;;;;;;;;;4980635;28;20026;-72
2021/08/20 14:08:42;;;;;;;0.68;0.60;;;;;;;;;;4982962;28;20038;-72
2021/08/20 14:11:08;;;;;;;1.80;0.80;;;;;;;;;;4982359;28;20042;-73
2021/08/20 14:13:34;;;;;;;2.15;0.70;;;;;;;;;;4987433;28;20037;-73
2021/08/20 14:16:00;;;;;;;1.30;1.20;;;;;;;;;;4986782;28;20044;-73
2021/08/20 14:18:26;;;;;;;1.75;1.30;;;;;;;;;;4988860;28;20477;-73
2021/08/20 14:20:52;;;;;;;3.10;1.40;;;;;;;;;;4986154;28;20125;-73
2021/08/20 14:23:18;;;;;;;2.38;1.48;;;;;;;;;;4983932;28;20539;-73
2021/08/20 14:25:45;;;;;;;4.60;1.60;;;;;;;;;;4985068;28;20030;-73
2021/08/20 14:28:11;;;;;;;1.55;1.30;;;;;;;;;;4984158;28;20390;-73
2021/08/20 14:30:37;;;;;;;1.85;1.40;;;;;;;;;;4988344;28;20037;-73
2021/08/20 14:33:03;;;;;;;1.42;1.02;;;;;;;;;;4981805;28;20061;-73
2021/08/20 14:35:29;;;;;;;1.52;1.23;;;;;;;;;;4986035;28;20038;-73
2021/08/20 14:37:55;;;;;;;2.25;1.17;;;;;;;;;;4984564;28;20033;-73
2021/08/20 14:40:21;;;;;;;2.15;1.42;;;;;;;;;;4987214;28;20528;-73